Time;durP1;ratioP1;P1;durP2;ratioP2;P2;SDS_P1;SDS_P2;PMS_P1;PMS_P2;Temp;Humidity;BMP_temperature;BMP_pressure;BME280_temperature;BME280_humidity;BME280_pressure;Samples;Min_cycle;Max_cycle;Signal;HPM_P1;HPM_P2
2022/04/29 00:01:49;;;;;;;13.30;6.25;;;;;;;11.90;57.07;102902.41;4983361;28;20117;-88
2022/04/29 00:04:15;;;;;;;9.52;6.20;;;;;;;11.85;57.49;102904.22;4985249;28;21674;-87
2022/04/29 00:06:40;;;;;;;13.77;6.78;;;;;;;11.78;57.79;102891.91;4980640;28;20236;-87
2022/04/29 00:09:05;;;;;;;8.75;5.85;;;;;;;11.71;57.73;102884.03;4983583;28;20469;-88
2022/04/29 00:11:31;;;;;;;12.35;5.68;;;;;;;11.67;57.68;102877.00;4976307;28;20544;-87
2022/04/29 00:13:56;;;;;;;8.40;5.43;;;;;;;11.68;57.25;102881.41;4972913;28;20060;-88
2022/04/29 00:16:22;;;;;;;12.68;5.90;;;;;;;11.69;57.71;102879.63;4986865;28;20091;-88
2022/04/29 00:18:47;;;;;;;10.07;6.00;;;;;;;11.65;57.60;102875.25;4965187;28;20798;-87
2022/04/29 00:21:12;;;;;;;15.43;6.50;;;;;;;11.73;57.25;102889.31;4966391;28;20210;-89
2022/04/29 00:23:38;;;;;;;10.50;5.75;;;;;;;11.63;59.86;102877.94;4985324;28;20037;-88
2022/04/29 00:26:03;;;;;;;8.60;5.78;;;;;;;11.53;58.05;102871.00;4979729;28;20525;-87
2022/04/29 00:28:30;;;;;;;12.50;6.65;;;;;;;11.55;59.06;102887.75;4964827;28;20038;-86
2022/04/29 00:30:55;;;;;;;14.43;6.07;;;;;;;11.43;58.36;102875.53;4986878;28;20058;-87
2022/04/29 00:33:21;;;;;;;10.10;6.07;;;;;;;11.30;58.43;102873.91;4984813;28;20115;-87
2022/04/29 00:35:46;;;;;;;10.88;5.88;;;;;;;11.18;58.46;102864.31;4977081;28;20393;-89
2022/04/29 00:38:15;;;;;;;13.65;6.18;;;;;;;11.25;58.64;102878.38;4983303;28;20120;-87
2022/04/29 00:40:40;;;;;;;9.07;5.82;;;;;;;11.29;58.83;102882.75;4979979;28;20168;-89
2022/04/29 00:43:06;;;;;;;12.15;6.13;;;;;;;11.33;59.42;102886.22;4990634;28;20026;-88
2022/04/29 00:45:31;;;;;;;12.38;6.53;;;;;;;11.29;58.67;102879.22;4982925;28;20452;-87
2022/04/29 00:47:56;;;;;;;9.80;5.70;;;;;;;11.15;58.90;102861.72;4984886;28;20478;-87
2022/04/29 00:50:25;;;;;;;12.82;6.05;;;;;;;11.26;58.95;102876.59;4969200;28;20044;-89
2022/04/29 00:52:53;;;;;;;10.73;6.13;;;;;;;11.08;59.29;102860.00;4983469;28;20660;-87
2022/04/29 00:55:21;;;;;;;8.52;6.50;;;;;;;11.06;59.22;102871.50;4972470;28;20116;-87
2022/04/29 00:57:57;;;;;;;15.02;6.32;;;;;;;11.03;59.35;102863.59;4987676;28;20042;-87
2022/04/29 01:00:23;;;;;;;10.48;6.70;;;;;;;11.05;59.21;102873.28;4966809;28;20092;-87
2022/04/29 01:02:51;;;;;;;15.05;6.10;;;;;;;10.97;59.54;102872.47;4986370;28;20572;-87
2022/04/29 01:05:21;;;;;;;8.65;6.10;;;;;;;10.81;59.74;102861.13;4981327;28;20448;-87
2022/04/29 01:07:48;;;;;;;11.50;6.45;;;;;;;10.82;59.94;102868.19;4983382;28;20030;-87
2022/04/29 01:10:16;;;;;;;11.98;6.10;;;;;;;10.70;60.56;102858.59;4988274;28;20041;-87
2022/04/29 01:12:43;;;;;;;9.00;5.15;;;;;;;10.58;60.09;102837.50;4990128;28;20036;-87
2022/04/29 01:15:13;;;;;;;12.27;5.68;;;;;;;10.75;60.03;102869.13;4968423;28;20031;-88
2022/04/29 01:17:39;;;;;;;10.65;5.60;;;;;;;10.75;60.06;102871.78;4967513;28;20034;-88
2022/04/29 01:20:10;;;;;;;10.35;5.57;;;;;;;10.48;60.04;102823.50;4981120;28;20034;-87
2022/04/29 01:22:35;;;;;;;8.45;5.57;;;;;;;10.63;60.18;102845.41;4993071;28;20156;-87
2022/04/29 01:25:03;;;;;;;13.45;5.90;;;;;;;10.75;60.43;102858.53;4974602;28;20015;-88
2022/04/29 01:27:28;;;;;;;12.38;5.95;;;;;;;10.68;60.71;102841.88;4973096;28;20358;-87
2022/04/29 01:30:03;;;;;;;9.95;5.95;;;;;;;10.75;59.47;102852.38;4971980;28;20084;-87
2022/04/29 01:32:32;;;;;;;12.55;5.65;;;;;;;10.55;60.15;102832.28;4988034;28;20030;-88
2022/04/29 01:34:57;;;;;;;10.82;6.10;;;;;;;10.44;60.03;102803.28;4985089;28;20049;-87
2022/04/29 01:37:22;;;;;;;9.40;6.82;;;;;;;10.43;60.30;102827.06;4959121;28;20030;-87
2022/04/29 01:39:48;;;;;;;10.98;6.10;;;;;;;10.36;60.42;102814.78;4989378;28;20026;-87
2022/04/29 01:42:13;;;;;;;12.38;6.38;;;;;;;10.36;61.24;102830.66;4988524;28;20042;-88
2022/04/29 01:44:39;;;;;;;9.95;6.35;;;;;;;10.35;60.78;102837.72;4989264;28;20033;-89
2022/04/29 01:47:04;;;;;;;11.23;5.85;;;;;;;10.27;60.96;102825.44;4967754;28;20026;-88
2022/04/29 01:49:30;;;;;;;16.08;6.05;;;;;;;10.21;61.05;102818.38;4967577;28;20030;-87
2022/04/29 01:51:56;;;;;;;13.27;6.60;;;;;;;10.14;61.06;102816.66;4972990;28;20031;-87
2022/04/29 01:54:21;;;;;;;10.80;6.07;;;;;;;10.12;61.15;102824.63;4972586;28;20041;-86
2022/04/29 01:56:47;;;;;;;10.32;6.57;;;;;;;10.13;61.22;102830.78;4987920;28;20039;-87
2022/04/29 01:59:13;;;;;;;11.13;6.00;;;;;;;10.08;61.57;102822.00;4991421;28;20062;-88
2022/04/29 02:01:39;;;;;;;11.00;5.75;;;;;;;10.00;61.53;102816.75;4995007;28;20560;-87
2022/04/29 02:04:04;;;;;;;15.75;6.57;;;;;;;10.00;61.67;102829.09;4992663;28;20054;-88
2022/04/29 02:06:29;;;;;;;10.00;5.75;;;;;;;9.84;61.88;102802.78;4972234;28;20027;-87
2022/04/29 02:08:55;;;;;;;11.70;6.07;;;;;;;9.92;61.98;102824.72;4993852;28;20033;-86
2022/04/29 02:11:21;;;;;;;17.35;7.15;;;;;;;9.81;61.77;102812.47;4976169;28;20033;-87
2022/04/29 02:13:47;;;;;;;13.20;6.13;;;;;;;9.81;62.19;102823.03;4991675;28;20485;-87
2022/04/29 02:16:13;;;;;;;11.73;6.45;;;;;;;9.84;63.52;102826.56;4970629;28;20515;-87
2022/04/29 02:18:39;;;;;;;9.10;5.95;;;;;;;9.76;62.40;102817.78;4977321;28;20061;-87
2022/04/29 02:21:05;;;;;;;12.45;7.20;;;;;;;9.70;62.90;102818.69;4986889;28;20107;-88
2022/04/29 02:23:30;;;;;;;10.75;6.57;;;;;;;9.65;62.52;102809.91;4978912;28;20064;-87
2022/04/29 02:25:57;;;;;;;12.02;5.97;;;;;;;9.66;62.53;102811.66;4991118;28;20057;-88
2022/04/29 02:28:23;;;;;;;13.18;6.65;;;;;;;9.65;62.78;102809.91;4970137;28;20222;-88
2022/04/29 02:30:49;;;;;;;9.80;6.20;;;;;;;9.62;62.81;102803.75;4990624;28;20060;-87
2022/04/29 02:33:14;;;;;;;12.18;6.35;;;;;;;9.65;62.80;102816.94;4996968;28;20437;-87
2022/04/29 02:35:39;;;;;;;12.00;6.53;;;;;;;9.54;62.63;102789.72;4973407;28;20029;-86
2022/04/29 02:38:05;;;;;;;12.10;6.75;;;;;;;9.68;62.69;102811.66;4987415;28;20034;-86
2022/04/29 02:40:30;;;;;;;11.20;6.70;;;;;;;9.68;62.74;102809.88;4982946;28;20412;-87
2022/04/29 02:42:55;;;;;;;11.05;6.32;;;;;;;9.55;63.03;102802.91;4973552;28;20117;-88
2022/04/29 02:45:21;;;;;;;13.10;6.60;;;;;;;9.55;63.32;102813.47;4989183;28;20393;-86
2022/04/29 02:47:46;;;;;;;19.42;6.72;;;;;;;9.55;63.07;102802.03;4972508;28;20038;-87
2022/04/29 02:50:11;;;;;;;10.80;6.57;;;;;;;9.53;63.17;102809.97;4974696;28;20087;-87
2022/04/29 02:52:36;;;;;;;14.18;6.97;;;;;;;9.44;63.48;102804.72;4972613;28;20026;-87
2022/04/29 02:55:02;;;;;;;14.48;6.82;;;;;;;9.43;63.61;102801.19;4994069;28;20028;-88
2022/04/29 02:57:27;;;;;;;12.80;6.78;;;;;;;9.36;63.58;102801.22;4991619;28;20041;-86
2022/04/29 02:59:53;;;;;;;11.38;6.05;;;;;;;9.38;63.85;102810.91;4975174;28;20022;-86
2022/04/29 03:02:18;;;;;;;13.07;6.50;;;;;;;9.38;63.73;102797.69;4992978;28;20049;-88
2022/04/29 03:04:43;;;;;;;13.88;6.80;;;;;;;9.38;63.94;102796.84;4975741;28;20030;-88
2022/04/29 03:07:09;;;;;;;14.23;6.20;;;;;;;9.31;64.25;102792.44;4971857;28;20032;-87
2022/04/29 03:09:34;;;;;;;11.75;6.47;;;;;;;9.29;64.14;102794.22;4973359;28;20040;-88
2022/04/29 03:12:00;;;;;;;12.57;6.70;;;;;;;9.25;64.45;102798.63;4974697;28;20860;-87
2022/04/29 03:14:25;;;;;;;14.80;7.20;;;;;;;9.35;64.35;102808.25;4973598;28;20382;-87
2022/04/29 03:16:50;;;;;;;17.85;7.53;;;;;;;9.32;64.03;102786.28;4986350;28;20064;-87
2022/04/29 03:19:17;;;;;;;13.88;7.07;;;;;;;9.33;64.16;102786.28;4973936;28;20054;-88
2022/04/29 03:21:42;;;;;;;12.73;6.50;;;;;;;9.31;64.15;102788.03;4976833;28;20034;-87
2022/04/29 03:24:08;;;;;;;13.23;7.25;;;;;;;9.32;64.37;102787.16;4977372;28;20029;-88
2022/04/29 03:26:35;;;;;;;16.95;7.25;;;;;;;9.33;63.75;102786.28;4974491;28;20057;-87
2022/04/29 03:29:00;;;;;;;10.70;7.15;;;;;;;9.32;64.43;102781.00;4976972;28;20386;-87
2022/04/29 03:31:25;;;;;;;17.42;7.25;;;;;;;9.22;63.85;102759.03;4986815;28;20022;-88
2022/04/29 03:33:51;;;;;;;16.20;7.93;;;;;;;9.29;64.20;102775.75;4997635;28;20105;-87
2022/04/29 03:36:16;;;;;;;13.50;7.45;;;;;;;9.25;64.44;102780.16;4995438;28;20539;-87
2022/04/29 03:38:42;;;;;;;11.93;6.93;;;;;;;9.22;64.50;102788.06;4973021;28;20113;-87
2022/04/29 03:41:07;;;;;;;17.95;8.40;;;;;;;9.17;64.05;102785.44;4973410;28;20054;-87
2022/04/29 03:43:32;;;;;;;18.50;7.90;;;;;;;9.20;64.30;102801.28;4963264;28;20026;-87
2022/04/29 03:45:58;;;;;;;17.48;7.40;;;;;;;9.15;64.77;102808.34;4969430;28;20034;-86
2022/04/29 03:48:23;;;;;;;17.95;8.07;;;;;;;9.00;64.76;102786.38;4990654;28;20041;-87
2022/04/29 03:50:49;;;;;;;13.75;7.25;;;;;;;9.01;65.20;102789.03;4989907;28;20164;-87
2022/04/29 03:53:14;;;;;;;12.02;6.60;;;;;;;9.09;64.55;102803.09;4988314;28;20101;-86
2022/04/29 03:55:39;;;;;;;13.80;8.35;;;;;;;9.04;64.70;102789.00;4972885;28;20065;-87
2022/04/29 03:58:05;;;;;;;16.58;7.43;;;;;;;9.11;64.64;102790.75;4990079;28;20554;-88
2022/04/29 04:00:32;;;;;;;12.50;7.60;;;;;;;9.07;64.79;102775.81;4972132;28;20038;-87
2022/04/29 04:03:05;;;;;;;11.35;7.45;;;;;;;9.01;64.75;102762.63;4990296;28;20034;-88
2022/04/29 04:05:31;;;;;;;17.60;8.38;;;;;;;9.07;65.05;102778.44;4990578;28;20030;-87
2022/04/29 04:07:57;;;;;;;17.60;7.90;;;;;;;9.02;66.15;102779.34;4986798;28;20038;-86
2022/04/29 04:10:22;;;;;;;17.15;7.97;;;;;;;9.16;64.83;102801.28;4974129;28;20425;-87
2022/04/29 04:12:50;;;;;;;13.20;7.28;;;;;;;9.13;65.51;102794.25;4992585;28;20382;-87
2022/04/29 04:15:17;;;;;;;13.82;7.63;;;;;;;9.19;64.85;102794.25;4990074;28;20080;-87
2022/04/29 04:17:43;;;;;;;13.63;7.40;;;;;;;9.13;64.50;102778.41;4972301;28;20045;-87
2022/04/29 04:20:11;;;;;;;14.05;7.57;;;;;;;9.09;64.79;102770.50;4970892;28;20060;-88
2022/04/29 04:22:36;;;;;;;17.65;7.70;;;;;;;9.03;64.87;102784.59;4972484;28;20034;-88
2022/04/29 04:25:07;;;;;;;12.15;7.53;;;;;;;9.05;64.58;102788.13;4987188;28;20205;-88
2022/04/29 04:27:33;;;;;;;15.63;7.95;;;;;;;9.01;65.50;102775.84;4985778;28;20093;-87
2022/04/29 04:29:59;;;;;;;14.02;8.10;;;;;;;9.01;65.45;102789.03;4975743;28;20069;-87
2022/04/29 04:32:26;;;;;;;16.60;7.82;;;;;;;8.97;64.86;102784.63;4993725;28;20045;-89
2022/04/29 04:34:57;;;;;;;15.75;7.93;;;;;;;8.83;64.96;102760.03;4989062;28;20026;-87
2022/04/29 04:37:24;;;;;;;15.07;7.88;;;;;;;9.04;64.81;102775.81;4976044;28;20120;-87
2022/04/29 04:39:51;;;;;;;15.43;8.15;;;;;;;9.08;64.78;102781.97;4987901;28;20046;-87
2022/04/29 04:42:17;;;;;;;15.60;8.20;;;;;;;9.05;64.60;102768.78;4993842;28;20061;-87
2022/04/29 04:44:43;;;;;;;22.15;9.68;;;;;;;9.15;64.67;102781.06;4973534;28;20053;-86
2022/04/29 04:47:09;;;;;;;20.50;8.60;;;;;;;9.14;64.65;102788.13;4982442;28;20061;-86
2022/04/29 04:49:35;;;;;;;18.13;8.75;;;;;;;8.99;65.27;102766.16;4969497;28;20029;-87
2022/04/29 04:52:00;;;;;;;17.08;8.38;;;;;;;9.07;64.63;102778.44;4968078;28;20033;-87
2022/04/29 04:54:26;;;;;;;15.85;7.95;;;;;;;9.05;64.55;102776.72;4972908;28;21306;-87
2022/04/29 04:56:51;;;;;;;15.27;8.32;;;;;;;9.10;64.54;102778.44;4975044;28;20457;-88
2022/04/29 04:59:17;;;;;;;16.70;8.60;;;;;;;9.00;64.30;102766.16;4987984;28;20041;-88
2022/04/29 05:01:42;;;;;;;17.65;8.82;;;;;;;8.96;64.64;102767.06;4974336;28;20068;-87
2022/04/29 05:04:08;;;;;;;16.08;8.77;;;;;;;9.05;64.05;102767.03;4995586;28;20022;-87
2022/04/29 05:06:36;;;;;;;21.50;8.82;;;;;;;9.07;64.67;102767.88;4994621;28;20026;-86
2022/04/29 05:09:01;;;;;;;19.88;8.18;;;;;;;8.96;64.94;102747.72;4990599;28;20481;-87
2022/04/29 05:11:26;;;;;;;15.77;8.70;;;;;;;9.05;65.75;102760.88;4970685;28;20018;-88
2022/04/29 05:13:52;;;;;;;18.17;9.20;;;;;;;8.97;65.10;102747.69;4985170;28;20275;-87
2022/04/29 05:16:17;;;;;;;21.25;9.77;;;;;;;9.02;64.38;102758.25;4972903;28;20038;-87
2022/04/29 05:18:43;;;;;;;16.77;8.45;;;;;;;8.98;64.17;102735.38;4970482;28;20546;-88
2022/04/29 05:21:08;;;;;;;22.95;10.05;;;;;;;9.15;64.97;102771.38;4991910;28;20034;-87
2022/04/29 05:23:36;;;;;;;21.05;9.35;;;;;;;9.13;64.73;102766.97;4974405;28;20058;-87
2022/04/29 05:26:02;;;;;;;17.23;9.02;;;;;;;9.06;64.71;102765.28;4970412;28;20065;-86
2022/04/29 05:28:27;;;;;;;17.33;8.73;;;;;;;9.01;65.41;102767.91;4968801;28;20026;-86
2022/04/29 05:30:52;;;;;;;17.15;8.73;;;;;;;8.92;64.94;102753.00;4984317;28;20419;-87
2022/04/29 05:33:18;;;;;;;18.67;9.48;;;;;;;8.90;65.19;102751.22;4974705;28;20036;-87
2022/04/29 05:35:43;;;;;;;17.95;8.73;;;;;;;9.03;65.28;102778.44;4970980;28;21179;-87
2022/04/29 05:38:08;;;;;;;18.02;8.93;;;;;;;9.06;65.31;102771.41;4996844;28;20058;-87
2022/04/29 05:43:18;;;;;;;20.60;9.13;;;;;;;9.05;64.82;102769.66;4996225;28;20108;-87
2022/04/29 05:45:43;;;;;;;15.82;8.55;;;;;;;9.06;65.16;102768.78;4977096;28;20019;-87
2022/04/29 05:48:09;;;;;;;17.05;8.70;;;;;;;9.10;65.45;102777.56;4973310;28;20077;-86
2022/04/29 05:50:34;;;;;;;17.63;8.82;;;;;;;9.14;65.02;102780.19;4968078;28;20556;-88
2022/04/29 05:52:59;;;;;;;17.25;9.27;;;;;;;9.18;65.35;102775.75;4988562;28;20175;-86
2022/04/29 05:55:25;;;;;;;15.32;8.45;;;;;;;9.23;64.98;102783.66;4975495;28;20033;-86
2022/04/29 05:57:50;;;;;;;16.70;8.77;;;;;;;9.22;64.58;102771.34;4977249;28;20048;-87
2022/04/29 06:00:16;;;;;;;19.10;9.68;;;;;;;9.35;64.33;102787.16;4975044;28;20037;-87
2022/04/29 06:02:43;;;;;;;19.73;9.07;;;;;;;9.44;63.66;102799.44;4977208;28;20588;-86
2022/04/29 06:05:09;;;;;;;16.77;9.68;;;;;;;9.50;63.73;102803.81;4993797;28;20050;-88
2022/04/29 06:07:34;;;;;;;19.67;9.80;;;;;;;9.48;64.39;102795.91;4994305;28;20893;-86
2022/04/29 06:10:00;;;;;;;16.00;8.52;;;;;;;9.54;63.65;102798.50;4991408;28;20030;-86
2022/04/29 06:12:26;;;;;;;14.23;9.10;;;;;;;9.57;64.16;102789.72;4988374;28;20079;-87
2022/04/29 06:14:51;;;;;;;21.13;9.95;;;;;;;9.61;63.79;102796.72;4988040;28;20391;-87
2022/04/29 06:17:16;;;;;;;16.60;9.32;;;;;;;9.68;63.45;102798.44;4989392;28;20038;-88
2022/04/29 06:19:42;;;;;;;21.20;9.90;;;;;;;9.69;64.02;102797.56;4975194;28;20100;-87
2022/04/29 06:22:07;;;;;;;17.73;10.32;;;;;;;9.73;63.81;102814.25;4975415;28;20034;-87
2022/04/29 06:24:33;;;;;;;19.40;9.68;;;;;;;9.64;63.72;102797.56;4977231;28;20112;-88
2022/04/29 06:26:58;;;;;;;18.70;9.40;;;;;;;9.61;64.95;102789.69;4972237;28;20030;-86
2022/04/29 06:29:24;;;;;;;20.02;10.40;;;;;;;9.84;63.88;102817.72;4974046;28;20030;-88
2022/04/29 06:31:50;;;;;;;22.13;10.45;;;;;;;9.81;63.29;102800.13;4974693;28;20129;-87
2022/04/29 06:34:15;;;;;;;19.50;9.63;;;;;;;9.90;63.28;102808.00;4977976;28;20030;-87
2022/04/29 06:36:41;;;;;;;15.82;9.77;;;;;;;9.88;62.62;102816.81;4976290;28;20068;-88
2022/04/29 06:39:06;;;;;;;17.20;9.68;;;;;;;9.97;64.21;102822.06;4974412;28;20037;-88
2022/04/29 06:41:32;;;;;;;23.48;10.50;;;;;;;10.04;63.72;102813.22;4977726;28;20160;-88
2022/04/29 06:43:57;;;;;;;16.88;9.48;;;;;;;10.07;62.61;102809.66;4990583;28;20030;-90
2022/04/29 06:46:25;;;;;;;22.98;9.57;;;;;;;10.09;62.88;102811.41;4977471;28;20032;-88
2022/04/29 06:48:52;;;;;;;19.70;10.00;;;;;;;10.10;62.74;102801.72;4993157;28;20109;-88
2022/04/29 06:51:18;;;;;;;22.17;10.32;;;;;;;10.31;63.18;102820.13;4993149;28;20022;-88
2022/04/29 06:53:43;;;;;;;19.92;10.60;;;;;;;10.41;63.11;102808.56;4979639;28;20037;-89
2022/04/29 06:56:09;;;;;;;17.95;9.98;;;;;;;10.50;63.29;102806.75;4994453;28;20049;-88
2022/04/29 06:58:35;;;;;;;23.33;10.00;;;;;;;10.56;60.50;102797.00;4974880;28;20452;-89
2022/04/29 07:01:00;;;;;;;19.65;10.27;;;;;;;10.67;60.64;102797.75;4974487;28;20126;-89
2022/04/29 07:03:25;;;;;;;19.13;9.48;;;;;;;10.75;60.34;102816.22;4984901;28;20040;-89
2022/04/29 07:05:53;;;;;;;22.60;10.27;;;;;;;10.82;61.20;102824.97;4971434;28;20022;-88
2022/04/29 07:08:21;;;;;;;21.63;10.57;;;;;;;10.91;60.18;102816.94;4977133;28;20025;-90
2022/04/29 07:10:46;;;;;;;20.52;10.43;;;;;;;10.81;59.58;102792.34;4953283;28;20588;-89
2022/04/29 07:13:12;;;;;;;18.58;9.52;;;;;;;10.89;59.94;102814.31;4966245;28;20037;-90
2022/04/29 07:15:43;;;;;;;22.23;10.63;;;;;;;11.01;59.82;102831.84;4966875;28;20034;-90
2022/04/29 07:18:09;;;;;;;23.50;11.20;;;;;;;10.98;60.08;102816.00;4965623;28;20113;-89
2022/04/29 07:20:34;;;;;;;17.02;9.60;;;;;;;11.20;59.64;102814.88;4988956;28;21544;-89
2022/04/29 07:22:59;;;;;;;21.92;11.25;;;;;;;11.43;58.76;102827.84;4989857;28;20100;-90
2022/04/29 07:25:25;;;;;;;16.55;9.20;;;;;;;11.34;58.48;102803.25;4974186;28;20025;-89
2022/04/29 07:27:50;;;;;;;22.15;10.32;;;;;;;11.40;58.72;102798.75;4992051;28;20029;-88
2022/04/29 07:30:16;;;;;;;23.85;11.52;;;;;;;11.73;58.39;102825.72;4972192;28;20034;-89
2022/04/29 07:32:41;;;;;;;22.38;9.10;;;;;;;11.68;57.37;102803.69;4970786;28;20037;-89
2022/04/29 07:43:21;;;;;;;19.08;10.43;;;;;;;12.62;55.38;102806.72;4989767;28;20429;-88
2022/04/29 07:45:46;;;;;;;19.85;9.52;;;;;;;12.71;55.32;102805.69;4974718;28;20014;-89
2022/04/29 07:48:12;;;;;;;19.45;10.02;;;;;;;12.73;55.73;102802.09;4970878;28;20485;-88
2022/04/29 07:50:37;;;;;;;17.92;10.65;;;;;;;12.67;55.21;102796.00;4974852;28;20034;-89
2022/04/29 07:53:03;;;;;;;20.10;9.68;;;;;;;12.84;55.29;102811.66;4972427;28;20676;-88
2022/04/29 07:55:29;;;;;;;18.35;10.20;;;;;;;12.98;55.06;102805.19;4992335;28;20037;-88
2022/04/29 07:57:55;;;;;;;25.33;10.73;;;;;;;13.21;54.55;102798.56;4994857;28;20394;-88
2022/04/29 08:00:21;;;;;;;21.00;10.85;;;;;;;13.48;53.56;102802.47;4974802;28;20037;-87
2022/04/29 08:02:47;;;;;;;19.33;10.50;;;;;;;13.77;53.57;102816.00;4995504;28;20116;-89
2022/04/29 08:05:12;;;;;;;19.95;10.43;;;;;;;13.85;52.49;102804.31;4976747;28;20466;-88
2022/04/29 08:07:38;;;;;;;16.75;10.95;;;;;;;13.83;53.14;102814.97;4974872;28;20061;-87
2022/04/29 08:10:04;;;;;;;21.73;10.57;;;;;;;13.79;52.55;102824.81;4988785;28;20080;-89
2022/04/29 08:12:30;;;;;;;19.35;10.80;;;;;;;13.73;53.16;102824.06;4990449;28;20060;-89
2022/04/29 08:14:56;;;;;;;22.73;10.48;;;;;;;13.90;52.75;102813.09;4974938;28;20061;-89
2022/04/29 08:17:23;;;;;;;18.67;10.60;;;;;;;14.14;51.92;102820.50;4971609;28;20066;-89
2022/04/29 08:19:49;;;;;;;16.48;9.88;;;;;;;14.18;51.74;102835.47;4985906;28;20022;-89
2022/04/29 08:22:15;;;;;;;22.15;11.35;;;;;;;14.08;51.67;102817.09;4980590;28;20374;-89
2022/04/29 08:24:41;;;;;;;19.80;10.55;;;;;;;14.09;51.85;102813.53;4963737;28;20033;-88
2022/04/29 08:27:07;;;;;;;16.75;10.38;;;;;;;14.30;51.63;102799.69;4982997;28;20111;-88
2022/04/29 08:29:33;;;;;;;25.08;11.05;;;;;;;14.56;52.13;102814.19;4974074;28;20556;-89
2022/04/29 08:31:58;;;;;;;15.10;9.65;;;;;;;14.95;50.49;102836.25;4986610;28;20065;-88
2022/04/29 08:34:24;;;;;;;19.08;10.05;;;;;;;14.87;50.16;102824.91;4965029;28;20030;-90
2022/04/29 08:36:49;;;;;;;21.63;10.68;;;;;;;14.61;50.39;102822.94;4966068;28;20125;-88
2022/04/29 08:39:15;;;;;;;21.50;11.30;;;;;;;14.52;50.60;102811.59;4990007;28;20157;-89
2022/04/29 08:41:42;;;;;;;17.10;10.43;;;;;;;14.42;50.84;102833.13;4970299;28;20034;-89
2022/04/29 08:44:10;;;;;;;17.38;10.82;;;;;;;14.42;52.71;102833.13;4971985;28;20113;-90
2022/04/29 08:46:39;;;;;;;20.33;10.98;;;;;;;14.62;50.96;102838.88;4972353;28;20113;-89
2022/04/29 08:49:06;;;;;;;18.08;10.05;;;;;;;14.68;51.24;102827.19;4986851;28;20049;-88
2022/04/29 08:51:34;;;;;;;17.20;10.52;;;;;;;14.95;50.14;102829.13;4990616;28;20053;-89
2022/04/29 08:54:01;;;;;;;17.65;10.30;;;;;;;14.83;49.50;102805.50;4989821;28;20034;-88
2022/04/29 08:59:12;;;;;;;16.38;10.05;;;;;;;15.01;50.09;102817.44;4990712;28;20589;-88
2022/04/29 09:01:40;;;;;;;19.65;10.50;;;;;;;15.22;49.19;102814.19;4993261;28;20061;-88
2022/04/29 09:04:06;;;;;;;19.75;10.90;;;;;;;15.35;49.57;102816.50;4992059;28;20026;-89
2022/04/29 09:06:32;;;;;;;17.63;10.40;;;;;;;15.38;48.64;102797.75;4988328;28;20018;-89
2022/04/29 09:09:08;;;;;;;20.17;10.85;;;;;;;15.44;49.36;102822.44;4972987;28;20030;-88
2022/04/29 09:11:33;;;;;;;24.60;11.05;;;;;;;15.38;49.37;102817.28;4993692;28;20033;-89
2022/04/29 09:14:17;;;;;;;20.98;10.20;;;;;;;15.19;49.23;102797.41;4989804;28;20030;-88
2022/04/29 09:16:48;;;;;;;21.10;10.57;;;;;;;15.18;49.41;102814.31;4971537;28;20168;-88
2022/04/29 09:19:35;;;;;;;17.83;10.02;;;;;;;15.20;49.43;102818.69;4975633;28;20021;-89
2022/04/29 09:22:08;;;;;;;20.98;10.77;;;;;;;15.10;50.09;102801.19;4970238;28;20034;-89
2022/04/29 09:24:36;;;;;;;25.70;12.25;;;;;;;15.37;49.43;102828.00;4989218;28;20030;-88
2022/04/29 09:27:04;;;;;;;17.40;10.63;;;;;;;15.48;49.54;102833.88;4970498;28;20061;-89
2022/04/29 09:29:39;;;;;;;15.70;9.95;;;;;;;15.57;48.74;102829.19;4975351;28;20041;-88
2022/04/29 09:32:05;;;;;;;21.45;11.65;;;;;;;15.67;49.58;102813.81;4989142;28;20032;-88
2022/04/29 09:34:53;;;;;;;19.92;10.82;;;;;;;15.98;49.02;102828.88;4987370;28;20145;-90
2022/04/29 09:37:24;;;;;;;19.77;10.60;;;;;;;16.03;48.22;102826.91;4975495;28;20120;-89
2022/04/29 09:39:57;;;;;;;20.60;11.27;;;;;;;16.16;47.98;102819.41;4969184;28;20037;-89
2022/04/29 09:42:22;;;;;;;20.98;10.90;;;;;;;16.21;48.19;102831.69;4988483;28;20030;-88
2022/04/29 09:44:48;;;;;;;17.45;10.80;;;;;;;16.20;47.48;102818.41;4988188;28;20849;-88
2022/04/29 09:47:19;;;;;;;20.55;10.80;;;;;;;16.15;48.36;102834.56;4992973;28;20033;-88
2022/04/29 09:49:55;;;;;;;18.40;9.70;;;;;;;16.04;48.49;102831.31;4988016;28;20482;-89
2022/04/29 09:52:22;;;;;;;19.70;10.25;;;;;;;15.85;48.48;102825.69;4970014;28;20653;-88
2022/04/29 09:54:48;;;;;;;19.65;10.27;;;;;;;15.74;48.67;102830.50;4969019;28;20027;-90
2022/04/29 09:57:19;;;;;;;19.77;10.52;;;;;;;15.52;48.71;102814.22;4972914;28;20052;-89
2022/04/29 09:59:46;;;;;;;14.95;9.48;;;;;;;15.46;48.91;102825.94;4989946;28;20088;-88
2022/04/29 10:02:14;;;;;;;20.88;10.30;;;;;;;15.35;49.10;102836.03;4971339;28;20038;-89
2022/04/29 10:04:42;;;;;;;20.08;10.68;;;;;;;15.23;50.22;102829.25;4983074;28;20034;-88
2022/04/29 10:07:10;;;;;;;15.35;10.13;;;;;;;15.03;49.24;102816.47;4987319;28;20026;-89
2022/04/29 10:09:37;;;;;;;21.92;10.48;;;;;;;14.94;49.98;102819.41;4971023;28;20117;-89
2022/04/29 10:12:07;;;;;;;16.63;10.23;;;;;;;14.99;50.86;102821.94;4966310;28;20040;-89
2022/04/29 10:14:36;;;;;;;13.77;8.90;;;;;;;14.94;50.31;102811.41;4966814;28;20036;-90
2022/04/29 10:22:44;;;;;;;16.95;10.18;;;;;;;14.87;51.26;102809.81;4984398;28;20037;-91
2022/04/29 10:25:11;;;;;;;19.05;11.15;;;;;;;14.86;50.42;102810.72;4970293;28;20053;-89
2022/04/29 10:27:40;;;;;;;20.00;10.52;;;;;;;14.87;50.60;102806.28;4991317;28;20025;-89
2022/04/29 10:30:07;;;;;;;19.80;10.30;;;;;;;14.82;50.19;102801.06;4971008;28;20038;-89
2022/04/29 10:32:58;;;;;;;18.30;9.73;;;;;;;15.03;50.80;102815.63;4989946;28;20026;-88
2022/04/29 10:35:39;;;;;;;17.52;9.90;;;;;;;15.08;50.56;102821.69;4964024;28;20038;-90
2022/04/29 10:38:14;;;;;;;21.63;9.85;;;;;;;15.18;50.41;102814.31;4964689;28;20547;-89
2022/04/29 10:40:40;;;;;;;17.65;9.88;;;;;;;15.20;50.29;102810.69;4987672;28;20614;-89
2022/04/29 10:43:07;;;;;;;16.58;9.40;;;;;;;15.24;49.99;102798.13;4981955;28;20041;-89
2022/04/29 10:45:33;;;;;;;17.23;9.27;;;;;;;15.23;49.80;102796.41;4987840;28;20026;-89
2022/04/29 10:47:58;;;;;;;14.85;9.43;;;;;;;15.15;49.78;102785.94;4988419;28;20038;-90
2022/04/29 10:50:30;;;;;;;15.50;9.00;;;;;;;15.17;50.02;102797.47;4969051;28;20034;-89
2022/04/29 10:52:59;;;;;;;16.95;9.18;;;;;;;15.18;50.28;102788.53;4968503;28;20038;-90
2022/04/29 10:55:25;;;;;;;20.00;9.40;;;;;;;15.36;50.90;102797.81;4984354;28;20117;-89
2022/04/29 10:57:51;;;;;;;15.45;8.60;;;;;;;15.44;49.36;102798.47;4978291;28;20392;-90
2022/04/29 11:00:21;;;;;;;14.50;8.45;;;;;;;15.40;49.24;102786.13;4971744;28;20033;-89
2022/04/29 11:02:47;;;;;;;17.48;9.10;;;;;;;15.52;49.94;102787.56;4982511;28;20409;-89
2022/04/29 11:05:36;;;;;;;14.95;9.07;;;;;;;15.48;49.68;102792.13;4987795;28;20023;-89
2022/04/29 11:08:08;;;;;;;22.23;9.25;;;;;;;15.40;49.80;102793.25;4973081;28;20474;-89
2022/04/29 11:10:59;;;;;;;18.92;9.57;;;;;;;15.28;50.31;102786.47;4972125;28;20529;-91
2022/04/29 11:13:27;;;;;;;19.92;8.48;;;;;;;15.11;50.82;102763.00;4991010;28;20424;-89
2022/04/29 11:15:53;;;;;;;16.38;9.82;;;;;;;15.22;50.87;102781.34;4987828;28;20025;-90
2022/04/29 11:18:23;;;;;;;17.33;9.20;;;;;;;15.25;50.97;102784.78;4972909;28;20034;-90
2022/04/29 11:20:55;;;;;;;17.45;8.48;;;;;;;15.31;50.90;102776.63;4991592;28;20034;-89
2022/04/29 11:26:17;;;;;;;16.73;9.27;;;;;;;15.53;49.77;102778.66;4985263;28;20049;-89
2022/04/29 11:28:43;;;;;;;14.98;8.98;;;;;;;15.48;50.66;102765.47;4993157;28;20034;-89
2022/04/29 11:31:10;;;;;;;33.83;10.80;;;;;;;15.54;49.82;102764.41;4972983;28;20032;-88
2022/04/29 11:33:36;;;;;;;12.05;8.85;;;;;;;15.56;49.21;102767.88;4970673;28;20030;-91
2022/04/29 11:36:06;;;;;;;15.13;8.23;;;;;;;15.63;50.22;102780.13;4988064;28;20507;-89
2022/04/29 11:38:38;;;;;;;15.75;8.32;;;;;;;15.75;49.38;102769.09;4988371;28;20097;-89
2022/04/29 11:41:04;;;;;;;17.05;9.38;;;;;;;15.92;48.75;102765.03;4976788;28;20333;-89